createdAt,value
2017-12-19T00:00:03.338Z,18.33
2017-12-19T00:00:37.006Z,17.33
2017-12-19T00:01:10.375Z,16.90
2017-12-19T00:01:44.039Z,17.08
2017-12-19T00:02:17.397Z,17.45
2017-12-19T00:02:51.080Z,17.62
2017-12-19T00:03:24.443Z,17.12
2017-12-19T00:03:58.118Z,18.25
2017-12-19T00:04:31.792Z,18.23
2017-12-19T00:05:05.890Z,17.50
2017-12-19T00:05:40.323Z,17.48
2017-12-19T00:06:13.665Z,17.95
2017-12-19T00:06:47.010Z,16.85
2017-12-19T00:07:20.390Z,17.70
2017-12-19T00:07:54.079Z,19.20
2017-12-19T00:08:27.738Z,17.58
2017-12-19T00:09:01.410Z,17.10
2017-12-19T00:09:36.227Z,18.20
2017-12-19T00:10:10.018Z,17.90
2017-12-19T00:10:43.832Z,18.30
2017-12-19T00:11:17.498Z,18.17
2017-12-19T00:11:51.995Z,18.65
2017-12-19T00:12:26.099Z,18.92
2017-12-19T00:13:00.225Z,17.85
2017-12-19T00:13:33.919Z,18.55
2017-12-19T00:14:07.637Z,17.48
2017-12-19T00:14:41.343Z,16.70
2017-12-19T00:15:15.106Z,18.40
2017-12-19T00:15:48.777Z,18.85
2017-12-19T00:16:22.539Z,18.92
2017-12-19T00:16:56.220Z,18.37
2017-12-19T00:17:29.574Z,18.20
2017-12-19T00:18:02.910Z,17.50
2017-12-19T00:18:37.353Z,17.35
2017-12-19T00:19:11.043Z,18.95
2017-12-19T00:19:44.440Z,18.70
2017-12-19T00:20:18.117Z,18.83
2017-12-19T00:20:51.130Z,19.15
2017-12-19T00:21:24.130Z,17.92
2017-12-19T00:21:57.897Z,18.27
2017-12-19T00:22:39.690Z,18.12
2017-12-19T00:23:13.282Z,17.67
2017-12-19T00:23:47.076Z,19.83
2017-12-19T00:24:20.914Z,18.77
2017-12-19T00:24:54.254Z,18.83
2017-12-19T00:25:28.026Z,18.67
2017-12-19T00:26:01.028Z,18.08
2017-12-19T00:26:34.056Z,18.25
2017-12-19T00:27:07.388Z,19.45
2017-12-19T00:27:40.775Z,19.65
2017-12-19T00:28:14.454Z,19.52
2017-12-19T00:28:47.871Z,20.67
2017-12-19T00:29:21.553Z,19.27
2017-12-19T00:29:55.291Z,18.25
2017-12-19T00:30:29.410Z,19.58
2017-12-19T00:31:02.765Z,19.85
2017-12-19T00:31:36.908Z,18.87
2017-12-19T00:32:10.592Z,20.77
2017-12-19T00:32:44.271Z,20.88
2017-12-19T00:33:18.719Z,20.12
2017-12-19T00:33:52.067Z,18.90
2017-12-19T00:34:26.166Z,19.75
2017-12-19T00:34:59.755Z,19.52
2017-12-19T00:35:33.443Z,20.45
2017-12-19T00:36:07.538Z,20.80
2017-12-19T00:36:41.217Z,20.08
2017-12-19T00:37:15.425Z,20.70
2017-12-19T00:37:49.867Z,19.12
2017-12-19T00:38:23.288Z,19.90
2017-12-19T00:38:57.126Z,19.42
2017-12-19T00:39:30.834Z,19.83
2017-12-19T00:40:03.880Z,21.83
2017-12-19T00:40:37.989Z,18.95
2017-12-19T00:41:11.330Z,19.58
2017-12-19T00:41:45.015Z,20.80
2017-12-19T00:42:18.367Z,19.25
2017-12-19T00:42:52.051Z,21.10
2017-12-19T00:43:25.763Z,19.80
2017-12-19T00:43:59.455Z,20.37
2017-12-19T00:44:33.127Z,21.27
2017-12-19T00:45:06.503Z,20.50
2017-12-19T00:45:40.166Z,20.17
2017-12-19T00:46:13.840Z,19.77
2017-12-19T00:46:48.269Z,20.98
2017-12-19T00:47:21.947Z,20.80
2017-12-19T00:47:56.434Z,20.40
2017-12-19T00:48:30.892Z,20.50
2017-12-19T00:49:04.557Z,21.08
2017-12-19T00:49:38.690Z,20.88
2017-12-19T00:50:12.271Z,20.30
2017-12-19T00:50:45.716Z,20.00
2017-12-19T00:51:20.163Z,21.52
2017-12-19T00:51:53.830Z,21.52
2017-12-19T00:52:27.170Z,20.75
2017-12-19T00:53:00.830Z,20.95
2017-12-19T00:53:34.518Z,21.95
2017-12-19T00:54:08.185Z,21.35
2017-12-19T00:54:41.515Z,20.48
2017-12-19T00:55:15.542Z,20.15
2017-12-19T00:55:49.987Z,19.90
2017-12-19T00:56:23.677Z,21.75
2017-12-19T00:56:56.684Z,20.75
2017-12-19T00:57:30.251Z,21.90
2017-12-19T00:58:03.253Z,20.25
2017-12-19T00:58:36.293Z,20.20
2017-12-19T00:59:09.637Z,22.30
2017-12-19T00:59:44.076Z,20.40
2017-12-19T01:00:17.782Z,20.30
2017-12-19T01:00:51.461Z,21.73
2017-12-19T01:01:25.140Z,20.70
2017-12-19T01:01:58.799Z,21.58
2017-12-19T01:02:33.234Z,21.50
2017-12-19T01:03:06.954Z,22.25
2017-12-19T01:03:40.308Z,21.60
2017-12-19T01:04:14.010Z,22.98
2017-12-19T01:04:47.875Z,23.80
2017-12-19T01:05:21.848Z,20.80
2017-12-19T01:05:55.622Z,21.08
2017-12-19T01:06:29.278Z,21.95
2017-12-19T01:07:02.730Z,22.30
2017-12-19T01:07:37.163Z,21.55
2017-12-19T01:08:10.483Z,21.12
2017-12-19T01:08:44.142Z,22.35
2017-12-19T01:09:17.798Z,22.80
2017-12-19T01:09:52.238Z,22.05
2017-12-19T01:10:26.325Z,22.33
2017-12-19T01:10:59.658Z,22.70
2017-12-19T01:11:33.325Z,22.80
2017-12-19T01:12:07.020Z,22.02
2017-12-19T01:12:40.721Z,21.87
2017-12-19T01:13:14.375Z,20.77
2017-12-19T01:13:47.733Z,22.92
2017-12-19T01:14:22.183Z,23.50
2017-12-19T01:14:55.871Z,21.58
2017-12-19T01:15:29.597Z,20.75
2017-12-19T01:16:04.042Z,23.55
2017-12-19T01:16:37.763Z,21.58
2017-12-19T01:17:12.371Z,22.45
2017-12-19T01:17:45.759Z,22.08
2017-12-19T01:18:19.110Z,22.95
2017-12-19T01:18:52.840Z,21.52
2017-12-19T01:19:27.418Z,22.70
2017-12-19T01:20:01.142Z,22.75
2017-12-19T01:20:34.839Z,21.58
2017-12-19T01:21:08.518Z,23.70
2017-12-19T01:21:42.187Z,27.55
2017-12-19T01:22:15.891Z,23.42
2017-12-19T01:22:49.562Z,22.98
2017-12-19T01:23:23.217Z,24.40
2017-12-19T01:23:57.653Z,24.95
2017-12-19T01:24:31.318Z,22.67
2017-12-19T01:25:05.755Z,21.67
2017-12-19T01:25:39.703Z,21.77
2017-12-19T01:26:14.133Z,23.27
2017-12-19T01:26:47.829Z,22.67
2017-12-19T01:27:21.499Z,23.10
2017-12-19T01:27:55.934Z,22.95
2017-12-19T01:28:29.589Z,22.67
2017-12-19T01:29:04.013Z,23.95
2017-12-19T01:29:38.453Z,22.00
2017-12-19T01:30:12.147Z,23.00
2017-12-19T01:30:45.854Z,22.75
2017-12-19T01:31:19.533Z,22.48
2017-12-19T01:31:53.224Z,24.60
2017-12-19T01:32:26.912Z,22.27
2017-12-19T01:33:00.577Z,21.73
2017-12-19T01:33:34.246Z,22.37
2017-12-19T01:34:07.921Z,22.65
2017-12-19T01:34:41.599Z,24.87
2017-12-19T01:35:15.270Z,23.98
2017-12-19T01:35:48.967Z,23.75
2017-12-19T01:36:24.058Z,23.52
2017-12-19T01:36:57.734Z,24.45
2017-12-19T01:37:31.414Z,24.50
2017-12-19T01:38:05.096Z,22.48
2017-12-19T01:38:38.770Z,23.12
2017-12-19T01:39:13.211Z,23.33
2017-12-19T01:39:46.908Z,24.48
2017-12-19T01:40:20.465Z,23.25
2017-12-19T01:40:54.932Z,24.02
2017-12-19T01:41:28.610Z,23.15
2017-12-19T01:42:02.301Z,22.98
2017-12-19T01:42:35.973Z,23.12
2017-12-19T01:43:09.651Z,24.67
2017-12-19T01:43:43.333Z,23.58
2017-12-19T01:44:17.019Z,22.27
2017-12-19T01:44:50.851Z,22.42
2017-12-19T01:45:24.520Z,24.00
2017-12-19T01:45:58.594Z,22.80
2017-12-19T01:46:33.022Z,22.60
2017-12-19T01:47:07.475Z,23.30
2017-12-19T01:47:41.154Z,22.87
2017-12-19T01:48:14.813Z,24.20
2017-12-19T01:48:48.471Z,24.20
2017-12-19T01:49:22.898Z,23.33
2017-12-19T01:49:56.597Z,24.33
2017-12-19T01:50:30.262Z,24.02
2017-12-19T01:51:04.409Z,23.40
2017-12-19T01:51:38.113Z,22.45
2017-12-19T01:52:11.795Z,24.25
2017-12-19T01:52:45.483Z,22.75
2017-12-19T01:53:19.171Z,23.15
2017-12-19T01:53:52.839Z,24.55
2017-12-19T01:54:26.524Z,23.48
2017-12-19T01:55:00.214Z,22.30
2017-12-19T01:55:33.892Z,24.25
2017-12-19T01:56:08.032Z,21.65
2017-12-19T01:56:42.645Z,22.98
2017-12-19T01:57:16.342Z,23.50
2017-12-19T01:57:50.019Z,23.92
2017-12-19T01:58:23.690Z,23.42
2017-12-19T01:58:57.364Z,23.73
2017-12-19T01:59:31.046Z,24.37
2017-12-19T02:00:04.397Z,24.37
2017-12-19T02:00:37.732Z,24.25
2017-12-19T02:01:11.454Z,25.75
2017-12-19T02:01:45.146Z,23.92
2017-12-19T02:02:18.872Z,23.52
2017-12-19T02:02:53.313Z,23.90
2017-12-19T02:03:26.982Z,24.17
2017-12-19T02:04:00.659Z,24.60
2017-12-19T02:04:35.099Z,24.60
2017-12-19T02:05:08.774Z,24.30
2017-12-19T02:05:42.445Z,23.80
2017-12-19T02:06:17.173Z,24.35
2017-12-19T02:06:50.844Z,23.25
2017-12-19T02:07:25.278Z,22.67
2017-12-19T02:07:58.944Z,26.12
2017-12-19T02:08:33.385Z,23.98
2017-12-19T02:09:07.144Z,25.05
2017-12-19T02:09:41.584Z,23.12
2017-12-19T02:10:15.260Z,21.85
2017-12-19T02:10:48.936Z,22.25
2017-12-19T02:11:23.398Z,24.27
2017-12-19T02:11:57.074Z,22.92
2017-12-19T02:12:30.741Z,23.52
2017-12-19T02:13:04.403Z,23.90
2017-12-19T02:13:38.826Z,22.95
2017-12-19T02:14:12.168Z,23.30
2017-12-19T02:14:45.839Z,24.63
2017-12-19T02:15:18.849Z,24.35
2017-12-19T02:15:52.978Z,23.12
2017-12-19T02:16:26.020Z,23.77
2017-12-19T02:16:59.794Z,24.65
2017-12-19T02:17:32.808Z,22.95
2017-12-19T02:18:05.831Z,24.95
2017-12-19T02:18:39.170Z,23.40
2017-12-19T02:19:12.179Z,24.15
2017-12-19T02:19:45.196Z,25.58
2017-12-19T02:20:18.980Z,23.73
2017-12-19T02:20:52.043Z,24.02
2017-12-19T02:21:25.204Z,24.17
2017-12-19T02:21:58.282Z,23.23
2017-12-19T02:22:31.295Z,24.90
2017-12-19T02:23:05.075Z,24.60
2017-12-19T02:23:38.073Z,25.50
2017-12-19T02:24:11.866Z,25.95
2017-12-19T02:24:45.624Z,25.75
2017-12-19T02:25:18.631Z,25.23
2017-12-19T02:25:52.394Z,23.33
2017-12-19T02:26:25.396Z,24.92
2017-12-19T02:26:58.405Z,24.23
2017-12-19T02:27:31.743Z,24.00
2017-12-19T02:28:05.654Z,24.95
2017-12-19T02:28:38.667Z,24.05
2017-12-19T02:29:11.681Z,25.70
2017-12-19T02:29:45.459Z,24.27
2017-12-19T02:30:18.602Z,25.42
2017-12-19T02:30:51.600Z,23.35
2017-12-19T02:31:24.611Z,24.73
2017-12-19T02:31:57.617Z,25.02
2017-12-19T02:32:30.614Z,25.65
2017-12-19T02:33:03.717Z,25.42
2017-12-19T02:33:36.912Z,25.02
2017-12-19T02:34:10.700Z,24.52
2017-12-19T02:34:44.469Z,24.08
2017-12-19T02:35:17.474Z,27.75
2017-12-19T02:35:51.234Z,24.70
2017-12-19T02:36:24.231Z,25.12
2017-12-19T02:36:58.001Z,24.50
2017-12-19T02:37:32.837Z,26.12
2017-12-19T02:38:06.621Z,24.02
2017-12-19T02:38:39.616Z,26.50
2017-12-19T02:39:12.615Z,25.05
2017-12-19T02:39:45.671Z,25.80
2017-12-19T02:40:19.455Z,24.52
2017-12-19T02:40:53.239Z,25.73
2017-12-19T02:41:27.059Z,24.27
2017-12-19T02:42:00.071Z,25.20
2017-12-19T02:42:45.006Z,23.05
2017-12-19T02:43:21.832Z,24.58
2017-12-19T02:43:55.586Z,25.55
2017-12-19T02:44:28.593Z,23.92
2017-12-19T02:45:02.405Z,24.17
2017-12-19T02:45:35.398Z,26.20
2017-12-19T02:46:08.442Z,25.75
2017-12-19T02:46:41.478Z,24.15
2017-12-19T02:47:14.491Z,24.37
2017-12-19T02:47:47.956Z,25.02
2017-12-19T02:48:22.057Z,26.70
2017-12-19T02:48:55.814Z,25.88
2017-12-19T02:49:28.812Z,24.60
2017-12-19T02:50:01.818Z,25.67
2017-12-19T02:50:34.816Z,24.98
2017-12-19T02:51:08.249Z,25.50
2017-12-19T02:51:42.021Z,26.55
2017-12-19T02:52:15.354Z,25.40
2017-12-19T02:52:48.714Z,24.98
2017-12-19T02:53:22.483Z,24.45
2017-12-19T02:53:55.482Z,26.27
2017-12-19T02:54:29.260Z,24.70
2017-12-19T02:55:02.265Z,24.05
2017-12-19T02:55:36.239Z,24.23
2017-12-19T02:56:10.007Z,25.98
2017-12-19T02:56:43.349Z,26.08
2017-12-19T02:57:16.346Z,25.88
2017-12-19T02:57:49.362Z,25.17
2017-12-19T02:58:22.368Z,22.77
2017-12-19T02:58:55.398Z,24.55
2017-12-19T02:59:28.419Z,25.70
2017-12-19T03:00:01.428Z,25.30
2017-12-19T03:00:34.430Z,25.20
2017-12-19T03:01:08.190Z,24.08
2017-12-19T03:01:41.190Z,24.80
2017-12-19T03:02:14.948Z,25.95
2017-12-19T03:02:48.266Z,25.62
2017-12-19T03:03:22.223Z,25.55
2017-12-19T03:03:55.231Z,27.08
2017-12-19T03:04:29.017Z,25.50
2017-12-19T03:05:02.025Z,25.20
2017-12-19T03:05:35.035Z,25.10
2017-12-19T03:06:08.062Z,24.48
2017-12-19T03:06:41.117Z,25.77
2017-12-19T03:07:14.878Z,26.87
2017-12-19T03:07:47.894Z,24.00
2017-12-19T03:08:21.675Z,26.58
2017-12-19T03:08:55.432Z,26.15
2017-12-19T03:09:28.436Z,26.42
2017-12-19T03:10:01.442Z,26.40
2017-12-19T03:10:34.439Z,27.13
2017-12-19T03:11:07.768Z,26.05
2017-12-19T03:11:40.782Z,25.80
2017-12-19T03:12:13.781Z,26.77
2017-12-19T03:12:46.762Z,25.58
2017-12-19T03:13:19.766Z,26.20
2017-12-19T03:13:52.926Z,26.58
2017-12-19T03:14:25.926Z,25.67
2017-12-19T03:14:59.811Z,25.60
2017-12-19T03:15:33.580Z,26.70
2017-12-19T03:16:07.354Z,28.48
2017-12-19T03:16:40.370Z,27.45
2017-12-19T03:17:13.374Z,25.40
2017-12-19T03:17:46.382Z,26.40
2017-12-19T03:18:19.384Z,26.45
2017-12-19T03:18:52.388Z,26.65
2017-12-19T03:19:25.403Z,26.00
2017-12-19T03:19:58.454Z,27.27
2017-12-19T03:20:31.463Z,26.12
2017-12-19T03:21:04.463Z,25.95
2017-12-19T03:21:38.223Z,26.52
2017-12-19T03:22:11.230Z,26.95
2017-12-19T03:22:45.017Z,28.38
2017-12-19T03:23:18.035Z,25.12
2017-12-19T03:23:51.029Z,26.50
2017-12-19T03:24:24.063Z,26.25
2017-12-19T03:24:57.089Z,27.33
2017-12-19T03:25:30.109Z,26.52
2017-12-19T03:26:03.891Z,26.05
2017-12-19T03:26:37.671Z,25.58
2017-12-19T03:27:11.439Z,24.73
2017-12-19T03:27:44.447Z,26.05
2017-12-19T03:28:17.468Z,27.33
2017-12-19T03:28:50.491Z,26.60
2017-12-19T03:29:24.540Z,27.70
2017-12-19T03:29:57.562Z,27.02
2017-12-19T03:30:31.334Z,26.02
2017-12-19T03:31:05.143Z,25.67
2017-12-19T03:31:38.930Z,27.30
2017-12-19T03:32:11.932Z,27.13
2017-12-19T03:32:44.948Z,26.67
2017-12-19T03:33:17.958Z,27.17
2017-12-19T03:33:51.737Z,25.33
2017-12-19T03:34:24.879Z,27.48
2017-12-19T03:34:57.892Z,25.70
2017-12-19T03:35:30.899Z,27.70
2017-12-19T03:36:03.904Z,28.33
2017-12-19T03:36:36.921Z,25.60
2017-12-19T03:37:10.702Z,28.38
2017-12-19T03:37:44.473Z,27.23
2017-12-19T03:38:17.507Z,27.98
2017-12-19T03:38:50.523Z,25.85
2017-12-19T03:39:23.522Z,26.23
2017-12-19T03:39:57.628Z,27.48
2017-12-19T03:40:31.419Z,27.60
2017-12-19T03:41:05.187Z,28.67
2017-12-19T03:41:38.183Z,28.00
2017-12-19T03:42:12.004Z,27.17
2017-12-19T03:42:45.018Z,28.00
2017-12-19T03:43:18.025Z,27.95
2017-12-19T03:43:51.794Z,28.35
2017-12-19T03:44:24.791Z,28.58
2017-12-19T03:44:59.258Z,27.87
2017-12-19T03:45:32.273Z,27.83
2017-12-19T03:46:05.287Z,26.58
2017-12-19T03:46:38.319Z,26.60
2017-12-19T03:47:11.331Z,27.75
2017-12-19T03:47:44.343Z,27.52
2017-12-19T03:48:17.339Z,27.73
2017-12-19T03:48:50.330Z,27.23
2017-12-19T03:49:24.117Z,29.55
2017-12-19T03:49:57.899Z,27.90
2017-12-19T03:50:31.677Z,26.83
2017-12-19T03:51:04.683Z,29.58
2017-12-19T03:51:37.694Z,29.15
2017-12-19T03:52:10.706Z,28.33
2017-12-19T03:52:43.719Z,27.85
2017-12-19T03:53:16.747Z,27.25
2017-12-19T03:53:49.761Z,28.75
2017-12-19T03:54:22.773Z,27.67
2017-12-19T03:54:55.778Z,28.10
2017-12-19T03:55:29.583Z,28.38
2017-12-19T03:56:03.367Z,28.00
2017-12-19T03:56:37.135Z,28.10
2017-12-19T03:57:10.170Z,28.20
2017-12-19T03:57:43.212Z,29.25
2017-12-19T03:58:16.988Z,28.58
2017-12-19T03:58:49.996Z,30.17
2017-12-19T03:59:23.001Z,28.70
2017-12-19T03:59:56.017Z,30.92
2017-12-19T04:00:29.013Z,29.37
2017-12-19T04:01:03.070Z,28.38
2017-12-19T04:01:36.074Z,28.05
2017-12-19T04:02:09.963Z,31.30
2017-12-19T04:02:43.739Z,26.95
2017-12-19T04:03:16.761Z,28.70
2017-12-19T04:03:49.779Z,28.40
2017-12-19T04:04:22.790Z,28.27
2017-12-19T04:04:55.811Z,28.85
2017-12-19T04:05:28.811Z,27.92
2017-12-19T04:06:01.818Z,29.33
2017-12-19T04:06:35.612Z,28.70
2017-12-19T04:07:08.647Z,30.15
2017-12-19T04:07:41.649Z,28.02
2017-12-19T04:08:14.664Z,30.42
2017-12-19T04:08:47.675Z,28.30
2017-12-19T04:09:20.712Z,29.10
2017-12-19T04:09:53.737Z,28.65
2017-12-19T04:10:27.509Z,28.15
2017-12-19T04:11:00.514Z,28.23
2017-12-19T04:11:34.310Z,30.80
2017-12-19T04:12:07.327Z,28.52
2017-12-19T04:12:40.336Z,27.13
2017-12-19T04:13:14.118Z,27.48
2017-12-19T04:13:47.131Z,29.50
2017-12-19T04:14:20.401Z,28.33
2017-12-19T04:14:54.181Z,30.27
2017-12-19T04:15:27.959Z,29.95
2017-12-19T04:16:00.969Z,29.27
2017-12-19T04:16:34.246Z,30.00
2017-12-19T04:17:07.252Z,28.80
2017-12-19T04:17:40.255Z,29.50
2017-12-19T04:18:13.265Z,28.00
2017-12-19T04:18:46.289Z,28.48
2017-12-19T04:19:19.289Z,28.70
2017-12-19T04:19:52.314Z,28.00
2017-12-19T04:20:26.594Z,27.55
2017-12-19T04:21:00.374Z,31.00
2017-12-19T04:21:35.188Z,26.70
2017-12-19T04:22:09.636Z,28.23
2017-12-19T04:22:42.650Z,29.12
2017-12-19T04:23:15.748Z,27.27
2017-12-19T04:23:49.856Z,29.83
2017-12-19T04:24:23.627Z,29.40
2017-12-19T04:24:56.964Z,29.42
2017-12-19T04:25:30.311Z,27.45
2017-12-19T04:26:04.066Z,30.65
2017-12-19T04:26:37.387Z,30.67
2017-12-19T04:27:10.449Z,29.87
2017-12-19T04:27:44.239Z,29.92
2017-12-19T04:28:18.006Z,29.65
2017-12-19T04:28:51.105Z,30.58
2017-12-19T04:29:24.875Z,30.30
2017-12-19T04:29:57.911Z,32.22
2017-12-19T04:30:30.918Z,28.90
2017-12-19T04:31:03.927Z,29.92
2017-12-19T04:31:38.018Z,28.50
2017-12-19T04:32:11.786Z,30.10
2017-12-19T04:32:44.811Z,29.02
2017-12-19T04:33:18.482Z,28.42
2017-12-19T04:33:52.253Z,29.48
2017-12-19T04:34:25.584Z,29.83
2017-12-19T04:34:58.652Z,29.77
2017-12-19T04:35:31.673Z,28.50
2017-12-19T04:36:04.684Z,28.50
2017-12-19T04:36:38.778Z,30.73
2017-12-19T04:37:12.600Z,29.80
2017-12-19T04:37:45.617Z,29.45
2017-12-19T04:38:18.618Z,29.80
2017-12-19T04:38:52.718Z,29.17
2017-12-19T04:39:26.849Z,29.65
2017-12-19T04:39:59.858Z,29.75
2017-12-19T04:40:32.854Z,27.67
2017-12-19T04:41:06.958Z,28.62
2017-12-19T04:41:40.747Z,28.52
2017-12-19T04:42:14.515Z,30.77
2017-12-19T04:42:47.529Z,30.37
2017-12-19T04:43:20.540Z,29.50
2017-12-19T04:43:53.574Z,29.30
2017-12-19T04:44:27.327Z,30.58
2017-12-19T04:45:00.327Z,30.55
2017-12-19T04:45:34.203Z,29.20
2017-12-19T04:46:07.247Z,29.40
2017-12-19T04:46:40.246Z,30.80
2017-12-19T04:47:13.251Z,29.73
2017-12-19T04:47:47.154Z,29.12
2017-12-19T04:48:20.150Z,30.65
2017-12-19T04:48:53.141Z,29.60
2017-12-19T04:49:26.197Z,30.80
2017-12-19T04:49:59.308Z,30.58
2017-12-19T04:50:33.347Z,29.55
2017-12-19T04:51:06.688Z,30.27
2017-12-19T04:51:39.690Z,29.70
2017-12-19T04:52:17.538Z,29.30
2017-12-19T04:52:50.894Z,31.45
2017-12-19T04:53:24.238Z,31.27
2017-12-19T04:53:58.032Z,30.45
2017-12-19T04:54:31.794Z,30.33
2017-12-19T04:55:06.549Z,29.58
2017-12-19T04:55:40.318Z,31.92
2017-12-19T04:56:13.342Z,30.52
2017-12-19T04:56:46.339Z,29.87
2017-12-19T04:57:21.079Z,28.52
2017-12-19T04:57:54.178Z,30.45
2017-12-19T04:58:28.311Z,31.12
2017-12-19T04:59:01.328Z,29.45
2017-12-19T04:59:34.994Z,31.60
2017-12-19T05:00:08.029Z,31.45
2017-12-19T05:00:41.017Z,29.55
2017-12-19T05:01:14.345Z,32.58
2017-12-19T05:01:47.436Z,28.92
2017-12-19T05:02:21.573Z,31.52
2017-12-19T05:02:54.977Z,29.45
2017-12-19T05:03:28.367Z,31.12
2017-12-19T05:04:01.429Z,31.12
2017-12-19T05:04:35.428Z,30.85
2017-12-19T05:05:08.757Z,31.12
2017-12-19T05:05:42.586Z,31.67
2017-12-19T05:06:15.917Z,30.90
2017-12-19T05:06:49.246Z,31.02
2017-12-19T05:07:22.503Z,31.08
2017-12-19T05:07:57.622Z,30.92
2017-12-19T05:08:32.518Z,31.30
2017-12-19T05:09:06.015Z,29.83
2017-12-19T05:09:39.034Z,29.02
2017-12-19T05:10:12.065Z,32.08
2017-12-19T05:10:46.559Z,28.77
2017-12-19T05:11:20.404Z,33.15
2017-12-19T05:11:53.486Z,31.05
2017-12-19T05:12:26.840Z,31.02
2017-12-19T05:13:00.612Z,31.58
2017-12-19T05:13:34.835Z,36.25
2017-12-19T05:14:09.165Z,30.05
2017-12-19T05:14:42.176Z,35.15
2017-12-19T05:15:15.976Z,31.50
2017-12-19T05:15:50.513Z,29.70
2017-12-19T05:16:25.754Z,32.45
2017-12-19T05:16:58.806Z,32.85
2017-12-19T05:17:33.260Z,31.45
2017-12-19T05:18:06.386Z,31.15
2017-12-19T05:18:40.488Z,32.20
2017-12-19T05:19:14.628Z,29.92
2017-12-19T05:19:47.828Z,31.30
2017-12-19T05:20:20.818Z,30.90
2017-12-19T05:20:53.839Z,29.37
2017-12-19T05:21:26.855Z,31.50
2017-12-19T05:21:59.867Z,30.12
2017-12-19T05:22:33.658Z,30.88
2017-12-19T05:23:08.113Z,31.37
2017-12-19T05:23:41.114Z,33.25
2017-12-19T05:24:14.127Z,32.38
2017-12-19T05:24:47.140Z,31.85
2017-12-19T05:25:20.483Z,31.67
2017-12-19T05:25:54.251Z,33.60
2017-12-19T05:26:28.042Z,31.35
2017-12-19T05:27:01.806Z,32.15
2017-12-19T05:27:35.500Z,29.05
2017-12-19T05:28:08.531Z,28.95
2017-12-19T05:28:41.611Z,33.95
2017-12-19T05:29:14.615Z,31.55
2017-12-19T05:29:47.957Z,30.98
2017-12-19T05:30:21.513Z,32.05
2017-12-19T05:30:54.520Z,31.27
2017-12-19T05:31:27.510Z,31.50
2017-12-19T05:32:00.521Z,29.25
2017-12-19T05:32:33.862Z,31.80
2017-12-19T05:33:07.206Z,31.10
2017-12-19T05:33:40.208Z,31.87
2017-12-19T05:34:13.565Z,31.37
2017-12-19T05:34:47.336Z,31.62
2017-12-19T05:35:21.886Z,29.58
2017-12-19T05:35:54.893Z,32.00
2017-12-19T05:36:27.899Z,30.70
2017-12-19T05:37:01.224Z,31.27
2017-12-19T05:37:34.230Z,31.80
2017-12-19T05:38:07.568Z,31.77
2017-12-19T05:38:41.032Z,30.77
2017-12-19T05:39:14.818Z,31.30
2017-12-19T05:39:47.833Z,31.73
2017-12-19T05:40:20.842Z,30.75
2017-12-19T05:40:53.840Z,31.45
2017-12-19T05:41:26.849Z,32.40
2017-12-19T05:41:59.837Z,32.47
2017-12-19T05:42:33.174Z,30.80
2017-12-19T05:43:06.173Z,30.92
2017-12-19T05:43:39.194Z,30.90
2017-12-19T05:44:12.206Z,32.90
2017-12-19T05:44:46.315Z,31.75
2017-12-19T05:45:19.404Z,30.40
2017-12-19T05:45:52.413Z,31.95
2017-12-19T05:46:25.439Z,32.40
2017-12-19T05:46:59.214Z,29.45
2017-12-19T05:47:32.300Z,29.87
2017-12-19T05:48:06.389Z,31.02
2017-12-19T05:48:40.538Z,31.85
2017-12-19T05:49:13.586Z,30.60
2017-12-19T05:49:48.007Z,29.92
2017-12-19T05:50:21.018Z,30.70
2017-12-19T05:50:54.362Z,31.70
2017-12-19T05:51:27.358Z,29.20
2017-12-19T05:52:00.711Z,30.70
2017-12-19T05:52:34.039Z,32.38
2017-12-19T05:53:08.609Z,31.42
2017-12-19T05:53:41.834Z,31.25
2017-12-19T05:54:14.911Z,31.98
2017-12-19T05:54:48.462Z,32.15
2017-12-19T05:55:21.463Z,30.55
2017-12-19T05:55:54.564Z,33.00
2017-12-19T05:56:28.712Z,30.52
2017-12-19T05:57:01.705Z,30.50
2017-12-19T05:57:34.722Z,30.95
2017-12-19T05:58:08.817Z,32.50
2017-12-19T05:58:43.240Z,30.45
2017-12-19T05:59:16.705Z,30.37
2017-12-19T05:59:49.714Z,29.90
2017-12-19T06:00:22.746Z,31.02
2017-12-19T06:00:56.550Z,33.28
2017-12-19T06:01:30.658Z,30.25
2017-12-19T06:02:04.444Z,31.50
2017-12-19T06:02:38.579Z,32.65
2017-12-19T06:03:11.567Z,31.02
2017-12-19T06:03:44.583Z,31.37
2017-12-19T06:04:18.713Z,31.08
2017-12-19T06:04:51.776Z,32.15
2017-12-19T06:05:25.548Z,31.52
2017-12-19T06:05:59.653Z,30.08
2017-12-19T06:06:33.419Z,29.52
2017-12-19T06:07:06.822Z,31.08
2017-12-19T06:07:40.603Z,32.92
2017-12-19T06:08:13.634Z,31.87
2017-12-19T06:08:46.988Z,32.40
2017-12-19T06:09:21.109Z,31.15
2017-12-19T06:09:54.116Z,31.98
2017-12-19T06:10:27.163Z,31.25
2017-12-19T06:11:00.155Z,29.17
2017-12-19T06:11:33.292Z,30.75
2017-12-19T06:12:06.634Z,32.60
2017-12-19T06:12:39.636Z,30.90
2017-12-19T06:13:13.422Z,30.10
2017-12-19T06:13:47.417Z,31.10
2017-12-19T06:14:20.755Z,31.77
2017-12-19T06:14:53.764Z,30.95
2017-12-19T06:15:26.777Z,31.60
2017-12-19T06:15:59.820Z,33.30
2017-12-19T06:16:33.920Z,30.08
2017-12-19T06:17:07.266Z,29.55
2017-12-19T06:17:40.278Z,30.83
2017-12-19T06:18:14.056Z,30.37
2017-12-19T06:18:48.845Z,30.40
2017-12-19T06:19:21.854Z,28.65
2017-12-19T06:19:55.191Z,31.87
2017-12-19T06:20:28.195Z,30.88
2017-12-19T06:21:01.534Z,31.05
2017-12-19T06:21:34.875Z,31.45
2017-12-19T06:22:07.874Z,33.38
2017-12-19T06:22:40.877Z,29.55
2017-12-19T06:23:13.916Z,30.10
2017-12-19T06:23:46.930Z,30.98
2017-12-19T06:24:19.983Z,32.92
2017-12-19T06:24:53.663Z,33.47
2017-12-19T06:25:27.006Z,30.00
2017-12-19T06:26:01.511Z,32.40
2017-12-19T06:26:34.538Z,31.80
2017-12-19T06:27:07.539Z,32.10
2017-12-19T06:27:40.534Z,31.45
2017-12-19T06:28:13.530Z,31.67
2017-12-19T06:28:47.314Z,32.03
2017-12-19T06:29:20.336Z,30.58
2017-12-19T06:29:53.333Z,31.55
2017-12-19T06:30:26.330Z,31.87
2017-12-19T06:30:59.673Z,33.47
2017-12-19T06:31:33.009Z,31.17
2017-12-19T06:32:07.176Z,32.85
2017-12-19T06:32:40.254Z,31.12
2017-12-19T06:33:13.405Z,32.72
2017-12-19T06:33:46.747Z,31.30
2017-12-19T06:34:20.846Z,29.92
2017-12-19T06:34:54.601Z,32.70
2017-12-19T06:35:27.610Z,31.95
2017-12-19T06:36:01.384Z,32.17
2017-12-19T06:36:34.782Z,31.42
2017-12-19T06:37:07.958Z,32.15
2017-12-19T06:37:41.158Z,30.92
2017-12-19T06:38:14.159Z,30.27
2017-12-19T06:38:47.248Z,30.95
2017-12-19T06:39:20.614Z,31.33
2017-12-19T06:39:53.644Z,34.22
2017-12-19T06:40:27.406Z,31.48
2017-12-19T06:41:00.408Z,30.88
2017-12-19T06:41:34.188Z,29.20
2017-12-19T06:42:07.517Z,30.25
2017-12-19T06:42:40.865Z,31.60
2017-12-19T06:43:14.953Z,30.98
2017-12-19T06:43:49.076Z,29.80
2017-12-19T06:44:22.418Z,30.33
2017-12-19T06:44:56.103Z,29.05
2017-12-19T06:45:29.490Z,30.67
2017-12-19T06:46:02.599Z,29.33
2017-12-19T06:46:36.364Z,31.23
2017-12-19T06:47:10.482Z,28.98
2017-12-19T06:47:44.589Z,29.92
2017-12-19T06:48:18.371Z,29.48
2017-12-19T06:48:51.726Z,31.15
2017-12-19T06:49:24.735Z,29.40
2017-12-19T06:49:58.530Z,29.40
2017-12-19T06:50:32.317Z,29.40
2017-12-19T06:51:06.086Z,30.85
2017-12-19T06:51:39.090Z,30.62
2017-12-19T06:52:12.871Z,29.58
2017-12-19T06:52:46.670Z,30.10
2017-12-19T06:53:20.459Z,31.17
2017-12-19T06:53:54.246Z,32.35
2017-12-19T06:54:28.682Z,31.15
2017-12-19T06:55:02.050Z,32.47
2017-12-19T06:55:36.161Z,29.65
2017-12-19T06:56:09.159Z,29.48
2017-12-19T06:56:42.499Z,31.80
2017-12-19T06:57:16.289Z,31.52
2017-12-19T06:57:50.059Z,31.37
2017-12-19T06:58:23.061Z,31.10
2017-12-19T06:58:57.157Z,30.92
2017-12-19T06:59:30.922Z,31.30
2017-12-19T07:00:04.342Z,30.42
2017-12-19T07:00:37.685Z,30.55
2017-12-19T07:01:10.784Z,32.35
2017-12-19T07:01:44.596Z,31.15
2017-12-19T07:02:18.544Z,28.50
2017-12-19T07:02:51.868Z,31.85
2017-12-19T07:03:25.624Z,30.73
2017-12-19T07:03:58.959Z,30.12
2017-12-19T07:04:31.942Z,31.08
2017-12-19T07:05:05.458Z,30.27
2017-12-19T07:05:39.121Z,30.65
2017-12-19T07:06:12.459Z,28.50
2017-12-19T07:06:46.248Z,28.60
2017-12-19T07:07:20.038Z,29.60
2017-12-19T07:07:53.377Z,30.20
2017-12-19T07:08:26.366Z,29.05
2017-12-19T07:09:00.450Z,29.95
2017-12-19T07:09:33.450Z,31.00
2017-12-19T07:10:06.818Z,30.90
2017-12-19T07:10:40.139Z,29.77
2017-12-19T07:11:14.232Z,30.02
2017-12-19T07:11:48.000Z,29.90